This is the latest recevied weather packets stored in our database for station/object WMKA. If no packets are shown the sender has not sent any weather packets the latest 10 day(s).
| Time | Temp. | Humidity | Pressure | Rain* | Wind** | Luminosity | Snow |
|---|---|---|---|---|---|---|---|
| 1777871396 | 31.67° C | 74% | 1010 hPa | - | - | - | - |
| 1777867796 | 30.56° C | 74% | 1011 hPa | - | - | - | - |
| 1777835396 | 25.56° C | 88% | 1009 hPa | - | - | - | - |
| 1777828201 | 25.56° C | 94% | 1010 hPa | - | - | - | - |
| 1777817984 | 25.56° C | 94% | 1009 hPa | - | - | - | - |
| 1777810784 | 25.56° C | 88% | 1008 hPa | - | - | - | - |
| 1777799394 | 33.89° C | 66% | 1004 hPa | - | - | - | - |
| 1777795801 | 33.89° C | 71% | 1005 hPa | - | - | - | - |
| 1777792194 | 33.89° C | 63% | 1006 hPa | - | - | - | - |
| 1777788594 | 33.89° C | 63% | 1008 hPa | - | - | - | - |
| 1777784994 | 32.78° C | 66% | 1009 hPa | - | - | - | - |
| 1777781400 | 31.67° C | 70% | 1010 hPa | - | - | - | - |
| 1777777793 | 30.56° C | 74% | 1010 hPa | - | - | - | - |
| 1777759793 | 25° C | 94% | 1008 hPa | - | - | - | - |
| 1777756193 | 25° C | 94% | 1007 hPa | - | - | - | - |
| 1777752593 | 25° C | 94% | 1007 hPa | - | - | - | - |
| 1777745393 | 25° C | 94% | 1009 hPa | - | - | - | - |
| 1777740593 | 25° C | 94% | 1010 hPa | - | - | - | - |
| 1777738192 | 25° C | 94% | 1010 hPa | - | - | - | - |
| 1777734592 | 25° C | 94% | 1009 hPa | - | - | - | - |
| 1777730999 | 25° C | 94% | 1009 hPa | - | - | - | - |
| 1777727392 | 25° C | 94% | 1008 hPa | - | - | - | - |
| 1777723797 | 25° C | 94% | 1008 hPa | - | - | - | - |
| 1777721981 | 25.56° C | 94% | 1007 hPa | - | - | - | - |
| 1777720194 | 25.56° C | 94% | 1007 hPa | - | - | - | - |
* Rain since midnight (hover to see other rain measurements)
** Current wind speed in m/s (hover to see current wind gust speed)